createdAt,value
2023-02-09T00:01:26.513Z,2.30
2023-02-09T00:03:54.567Z,2.20
2023-02-09T00:06:24.786Z,2.20
2023-02-09T00:08:52.802Z,2.20
2023-02-09T00:11:43.867Z,2.20
2023-02-09T00:14:12.897Z,2.20
2023-02-09T00:16:42.326Z,2.20
2023-02-09T00:19:10.760Z,2.20
2023-02-09T00:21:39.490Z,2.10
2023-02-09T00:24:10.852Z,2.10
2023-02-09T00:26:40.101Z,2.10
2023-02-09T00:29:08.846Z,2.10
2023-02-09T00:31:36.906Z,2.10
2023-02-09T00:34:05.621Z,2.10
2023-02-09T00:36:33.520Z,2.10
2023-02-09T00:39:01.849Z,2.10
2023-02-09T00:41:47.871Z,2.10
2023-02-09T00:44:15.834Z,2.10
2023-02-09T00:46:43.598Z,2.20
2023-02-09T00:49:11.325Z,2.10
2023-02-09T00:51:38.910Z,2.10
2023-02-09T00:54:07.126Z,2.10
2023-02-09T00:56:35.267Z,2.20
2023-02-09T00:59:03.237Z,2.30
2023-02-09T01:01:31.009Z,2.30
2023-02-09T01:03:58.741Z,2.30
2023-02-09T01:06:26.435Z,2.30
2023-02-09T01:08:54.530Z,2.30
2023-02-09T01:11:27.251Z,2.40
2023-02-09T01:13:59.868Z,2.30
2023-02-09T01:16:29.178Z,2.40
2023-02-09T01:18:58.940Z,2.30
2023-02-09T01:21:27.242Z,2.30
2023-02-09T01:23:55.326Z,2.20
2023-02-09T01:26:23.002Z,2.20
2023-02-09T01:28:54.342Z,2.20
2023-02-09T01:31:29.413Z,2.20
2023-02-09T01:33:59.073Z,2.30
2023-02-09T01:36:29.060Z,2.20
2023-02-09T01:38:59.400Z,2.10
2023-02-09T01:41:28.120Z,2.10
2023-02-09T01:44:12.447Z,2.10
2023-02-09T01:46:40.557Z,2.00
2023-02-09T01:49:27.961Z,2.00
2023-02-09T01:52:04.856Z,1.90
2023-02-09T01:54:38.025Z,1.90
2023-02-09T01:57:17.083Z,2.00
2023-02-09T01:59:50.934Z,2.00
2023-02-09T02:02:19.544Z,2.00
2023-02-09T02:04:51.080Z,2.00
2023-02-09T02:07:38.792Z,2.00
2023-02-09T02:10:07.095Z,2.00
2023-02-09T02:12:36.175Z,2.10
2023-02-09T02:15:04.531Z,2.00
2023-02-09T02:17:57.000Z,2.00
2023-02-09T02:20:50.075Z,2.00
2023-02-09T02:23:48.616Z,2.00
2023-02-09T02:26:54.189Z,2.00
2023-02-09T02:29:46.889Z,1.90
2023-02-09T02:32:33.555Z,2.00
2023-02-09T02:35:16.246Z,2.00
2023-02-09T02:38:00.048Z,1.90
2023-02-09T02:40:42.979Z,1.90
2023-02-09T02:43:36.732Z,1.90
2023-02-09T02:46:15.683Z,1.90
2023-02-09T02:48:50.863Z,2.00
2023-02-09T02:51:33.003Z,1.80
2023-02-09T02:54:05.962Z,1.80
2023-02-09T02:56:47.278Z,1.80
2023-02-09T02:59:19.130Z,1.70
2023-02-09T03:01:54.026Z,1.70
2023-02-09T03:04:23.052Z,1.70
2023-02-09T03:06:50.799Z,1.70
2023-02-09T03:09:18.891Z,1.70
2023-02-09T03:11:50.028Z,1.70
2023-02-09T03:14:47.937Z,1.60
2023-02-09T03:17:40.412Z,1.60
2023-02-09T03:20:31.903Z,1.60
2023-02-09T03:23:03.073Z,1.60
2023-02-09T03:25:38.005Z,1.60
2023-02-09T03:28:17.086Z,1.60
2023-02-09T03:30:49.227Z,1.60
2023-02-09T03:33:23.296Z,1.60
2023-02-09T03:35:54.847Z,1.60
2023-02-09T03:38:23.324Z,1.60
2023-02-09T03:40:51.992Z,1.60
2023-02-09T03:43:19.810Z,1.60
2023-02-09T03:45:47.471Z,1.60
2023-02-09T03:48:15.261Z,1.60
2023-02-09T03:50:42.936Z,1.60
2023-02-09T03:53:10.662Z,1.50
2023-02-09T03:55:38.502Z,1.50
2023-02-09T03:58:06.163Z,1.50
2023-02-09T04:00:33.881Z,1.50
2023-02-09T04:03:01.657Z,1.60
2023-02-09T04:05:29.335Z,1.60
2023-02-09T04:08:00.663Z,1.60
2023-02-09T04:10:28.639Z,1.60
2023-02-09T04:12:56.353Z,1.70
2023-02-09T04:15:24.046Z,1.60
2023-02-09T04:17:51.731Z,1.60
2023-02-09T04:20:19.375Z,1.60
2023-02-09T04:22:47.062Z,1.60
2023-02-09T04:25:14.939Z,1.50
2023-02-09T04:27:43.023Z,1.50
2023-02-09T04:30:11.342Z,1.50
2023-02-09T04:32:39.162Z,1.50
2023-02-09T04:35:07.188Z,1.50
2023-02-09T04:37:34.912Z,1.50
2023-02-09T04:40:02.629Z,1.50
2023-02-09T04:42:32.425Z,1.50
2023-02-09T04:45:00.071Z,1.50
2023-02-09T04:47:28.105Z,1.40
2023-02-09T04:49:55.751Z,1.40
2023-02-09T04:52:23.600Z,1.40
2023-02-09T04:54:51.348Z,1.40
2023-02-09T04:57:37.594Z,1.40
2023-02-09T05:00:05.936Z,1.40
2023-02-09T05:02:33.581Z,1.40
2023-02-09T05:05:01.345Z,1.40
2023-02-09T05:07:29.171Z,1.40
2023-02-09T05:09:56.884Z,1.40
2023-02-09T05:12:24.712Z,1.40
2023-02-09T05:14:52.418Z,1.40
2023-02-09T05:17:21.345Z,1.50
2023-02-09T05:19:49.296Z,1.50
2023-02-09T05:22:17.047Z,1.50
2023-02-09T05:24:44.707Z,1.50
2023-02-09T05:27:12.349Z,1.60
2023-02-09T05:29:40.090Z,1.50
2023-02-09T05:32:07.933Z,1.50
2023-02-09T05:34:35.844Z,1.50
2023-02-09T05:37:03.904Z,1.50
2023-02-09T05:39:31.579Z,1.50
2023-02-09T05:42:17.463Z,1.50
2023-02-09T05:44:47.524Z,1.40
2023-02-09T05:47:21.354Z,1.40
2023-02-09T05:49:49.255Z,1.30
2023-02-09T05:52:17.881Z,1.30
2023-02-09T05:54:48.344Z,1.30
2023-02-09T05:57:16.999Z,1.30
2023-02-09T05:59:45.261Z,1.30
2023-02-09T06:02:13.070Z,1.30
2023-02-09T06:04:40.966Z,1.20
2023-02-09T06:07:10.965Z,1.20
2023-02-09T06:09:39.601Z,1.10
2023-02-09T06:12:07.300Z,1.10
2023-02-09T06:14:35.017Z,1.00
2023-02-09T06:17:02.854Z,0.90
2023-02-09T06:19:30.925Z,0.80
2023-02-09T06:21:58.955Z,1.00
2023-02-09T06:24:26.748Z,0.80
2023-02-09T06:26:56.353Z,0.60
2023-02-09T06:29:25.159Z,0.50
2023-02-09T06:31:53.111Z,0.50
2023-02-09T06:34:20.943Z,0.40
2023-02-09T06:36:48.604Z,0.20
2023-02-09T06:39:16.253Z,0.20
2023-02-09T06:41:43.961Z,0.30
2023-02-09T06:44:12.203Z,0.40
2023-02-09T06:46:40.193Z,0.30
2023-02-09T06:49:07.870Z,0.20
2023-02-09T06:51:35.678Z,0.30
2023-02-09T06:54:03.660Z,0.30
2023-02-09T06:56:31.328Z,0.30
2023-02-09T06:58:58.998Z,0.40
2023-02-09T07:01:26.729Z,0.40
2023-02-09T07:03:54.470Z,0.40
2023-02-09T07:06:23.032Z,0.60
2023-02-09T07:08:51.183Z,0.70
2023-02-09T07:11:19.887Z,0.70
2023-02-09T07:13:48.405Z,0.70
2023-02-09T07:16:16.261Z,0.80
2023-02-09T07:18:44.112Z,0.70
2023-02-09T07:21:15.814Z,0.80
2023-02-09T07:23:43.431Z,0.80
2023-02-09T07:26:15.417Z,0.80
2023-02-09T07:28:43.411Z,0.90
2023-02-09T07:31:13.602Z,1.00
2023-02-09T07:33:41.778Z,1.00
2023-02-09T07:36:11.997Z,1.10
2023-02-09T07:38:40.903Z,1.20
2023-02-09T07:41:17.755Z,1.30
2023-02-09T07:43:45.927Z,1.40
2023-02-09T07:46:16.733Z,1.50
2023-02-09T07:48:44.529Z,1.60
2023-02-09T07:51:21.248Z,1.60
2023-02-09T07:53:49.021Z,1.70
2023-02-09T07:56:17.248Z,1.70
2023-02-09T07:58:45.093Z,1.80
2023-02-09T08:01:14.453Z,1.90
2023-02-09T08:03:44.520Z,1.90
2023-02-09T08:06:28.004Z,2.00
2023-02-09T08:09:06.234Z,2.10
2023-02-09T08:11:44.621Z,2.10
2023-02-09T08:14:30.074Z,2.20
2023-02-09T08:17:24.470Z,2.30
2023-02-09T08:19:52.068Z,2.40
2023-02-09T08:22:21.133Z,2.40
2023-02-09T08:24:48.849Z,2.50
2023-02-09T08:27:16.768Z,2.60
2023-02-09T08:29:44.625Z,2.70
2023-02-09T08:32:12.480Z,2.70
2023-02-09T08:34:40.209Z,2.80
2023-02-09T08:37:07.965Z,2.70
2023-02-09T08:39:35.671Z,2.80
2023-02-09T08:42:03.473Z,2.80
2023-02-09T08:45:09.009Z,2.80
2023-02-09T08:47:36.796Z,2.90
2023-02-09T08:50:04.777Z,2.80
2023-02-09T08:52:32.527Z,2.90
2023-02-09T08:55:00.290Z,2.90
2023-02-09T08:57:42.806Z,3.10
2023-02-09T09:00:12.344Z,3.10
2023-02-09T09:02:40.280Z,3.20
2023-02-09T09:05:08.256Z,3.10
2023-02-09T09:07:36.126Z,3.10
2023-02-09T09:10:04.394Z,3.00
2023-02-09T09:12:32.055Z,3.10
2023-02-09T09:14:59.759Z,3.10
2023-02-09T09:17:27.636Z,3.10
2023-02-09T09:19:56.478Z,3.20
2023-02-09T09:22:24.382Z,3.20
2023-02-09T09:24:54.594Z,3.40
2023-02-09T09:27:24.787Z,3.40
2023-02-09T09:29:54.705Z,3.40
2023-02-09T09:32:25.205Z,3.50
2023-02-09T09:34:58.525Z,3.50
2023-02-09T09:37:27.378Z,3.50
2023-02-09T09:39:55.328Z,3.60
2023-02-09T09:42:29.064Z,3.60
2023-02-09T09:44:57.150Z,3.70
2023-02-09T09:47:39.710Z,3.70
2023-02-09T09:50:28.225Z,3.90
2023-02-09T09:53:04.033Z,4.00
2023-02-09T09:55:33.375Z,4.00
2023-02-09T09:58:05.214Z,4.10
2023-02-09T10:00:36.988Z,4.00
2023-02-09T10:03:17.320Z,4.10
2023-02-09T10:05:47.979Z,4.20
2023-02-09T10:08:25.168Z,4.20
2023-02-09T10:10:59.219Z,4.30
2023-02-09T10:13:37.619Z,4.30
2023-02-09T10:16:20.345Z,4.40
2023-02-09T10:18:53.424Z,4.40
2023-02-09T10:21:23.041Z,4.40
2023-02-09T10:24:11.948Z,4.50
2023-02-09T10:26:43.232Z,4.60
2023-02-09T10:29:13.964Z,4.60
2023-02-09T10:31:50.662Z,4.60
2023-02-09T10:34:33.738Z,4.70
2023-02-09T10:37:34.910Z,4.80
2023-02-09T10:40:18.587Z,4.70
2023-02-09T10:42:57.281Z,4.80
2023-02-09T10:45:34.127Z,4.80
2023-02-09T10:48:22.584Z,5.00
2023-02-09T10:51:05.475Z,5.10
2023-02-09T10:53:39.179Z,5.20
2023-02-09T10:56:16.637Z,5.40
2023-02-09T10:58:54.301Z,5.40
2023-02-09T11:01:26.591Z,5.50
2023-02-09T11:03:59.630Z,5.50
2023-02-09T11:06:28.046Z,5.60
2023-02-09T11:09:02.065Z,5.60
2023-02-09T11:11:32.563Z,5.70
2023-02-09T11:14:01.189Z,5.80
2023-02-09T11:17:06.415Z,6.00
2023-02-09T11:19:55.748Z,6.10
2023-02-09T11:23:09.080Z,6.20
2023-02-09T11:26:05.102Z,6.20
2023-02-09T11:28:55.224Z,6.30
2023-02-09T11:32:00.649Z,6.30
2023-02-09T11:34:34.628Z,6.50
2023-02-09T11:37:21.044Z,6.50
2023-02-09T11:40:05.452Z,6.60
2023-02-09T11:42:45.488Z,6.80
2023-02-09T11:45:31.596Z,7.00
2023-02-09T11:48:10.878Z,7.20
2023-02-09T11:50:49.894Z,7.30
2023-02-09T11:53:37.845Z,7.30
2023-02-09T11:56:09.069Z,7.30
2023-02-09T11:59:17.788Z,7.30
2023-02-09T12:02:00.490Z,7.60
2023-02-09T12:05:00.745Z,7.80
2023-02-09T12:07:58.803Z,7.90
2023-02-09T12:10:36.947Z,7.80
2023-02-09T12:13:19.701Z,7.50
2023-02-09T12:15:53.054Z,7.50
2023-02-09T12:18:28.335Z,7.80
2023-02-09T12:20:58.036Z,8.00
2023-02-09T12:23:40.669Z,8.20
2023-02-09T12:26:17.511Z,8.20
2023-02-09T12:29:22.420Z,8.40
2023-02-09T12:32:06.480Z,8.30
2023-02-09T12:34:47.129Z,8.50
2023-02-09T12:37:14.892Z,8.70
2023-02-09T12:40:17.208Z,8.80
2023-02-09T12:43:09.875Z,9.00
2023-02-09T12:45:39.117Z,8.80
2023-02-09T12:48:09.833Z,8.60
2023-02-09T12:50:43.713Z,8.50
2023-02-09T12:53:23.827Z,8.40
2023-02-09T12:56:01.343Z,8.70
2023-02-09T12:58:44.425Z,9.00
2023-02-09T13:01:14.848Z,9.20
2023-02-09T13:03:52.221Z,9.10
2023-02-09T13:06:46.980Z,8.90
2023-02-09T13:09:19.497Z,9.00
2023-02-09T13:11:51.685Z,9.20
2023-02-09T13:14:22.448Z,9.20
2023-02-09T13:17:08.727Z,9.20
2023-02-09T13:19:49.493Z,9.00
2023-02-09T13:22:30.812Z,9.10
2023-02-09T13:25:27.458Z,8.80
2023-02-09T13:27:55.540Z,8.80
2023-02-09T13:30:29.778Z,8.40
2023-02-09T13:33:17.443Z,8.20
2023-02-09T13:36:29.735Z,7.70
2023-02-09T13:38:58.835Z,7.80
2023-02-09T13:41:38.793Z,8.00
2023-02-09T13:44:27.905Z,8.20
2023-02-09T13:46:58.110Z,8.20
2023-02-09T13:49:27.810Z,7.90
2023-02-09T13:52:09.492Z,8.10
2023-02-09T13:54:37.949Z,8.20
2023-02-09T13:57:10.745Z,8.30
2023-02-09T13:59:42.850Z,8.40
2023-02-09T14:02:24.730Z,8.40
2023-02-09T14:04:57.796Z,8.00
2023-02-09T14:07:33.222Z,7.90
2023-02-09T14:10:13.851Z,7.90
2023-02-09T14:13:20.666Z,8.00
2023-02-09T14:16:10.049Z,7.70
2023-02-09T14:18:49.693Z,7.70
2023-02-09T14:21:32.539Z,7.70
2023-02-09T14:24:00.167Z,7.60
2023-02-09T14:26:29.306Z,7.40
2023-02-09T14:29:23.341Z,7.10
2023-02-09T14:31:58.143Z,6.90
2023-02-09T14:34:35.421Z,6.80
2023-02-09T14:37:12.009Z,6.90
2023-02-09T14:40:01.225Z,7.00
2023-02-09T14:42:30.338Z,6.90
2023-02-09T14:45:02.517Z,6.80
2023-02-09T14:47:36.030Z,6.80
2023-02-09T14:50:05.369Z,6.70
2023-02-09T14:52:33.531Z,6.60
2023-02-09T14:55:04.775Z,6.70
2023-02-09T14:57:36.286Z,6.60
2023-02-09T15:00:39.675Z,6.70
2023-02-09T15:03:07.445Z,6.70
2023-02-09T15:05:35.325Z,6.40
2023-02-09T15:08:08.875Z,6.40
2023-02-09T15:10:48.005Z,6.50
2023-02-09T15:13:16.481Z,6.30
2023-02-09T15:15:44.678Z,6.30
2023-02-09T15:18:31.049Z,6.40
2023-02-09T15:20:59.719Z,6.20
2023-02-09T15:23:27.554Z,6.20
2023-02-09T15:25:55.228Z,6.20
2023-02-09T15:28:28.864Z,6.20
2023-02-09T15:30:58.076Z,6.40
2023-02-09T15:33:27.070Z,6.40
2023-02-09T15:35:55.603Z,6.30
2023-02-09T15:38:24.883Z,6.20
2023-02-09T15:41:11.006Z,6.10
2023-02-09T15:43:57.396Z,6.00
2023-02-09T15:46:43.592Z,6.10
2023-02-09T15:49:11.532Z,6.00
2023-02-09T15:51:40.105Z,5.90
2023-02-09T15:54:14.822Z,5.90
2023-02-09T15:56:42.808Z,6.10
2023-02-09T15:59:19.917Z,5.90
2023-02-09T16:01:48.116Z,5.90
2023-02-09T16:04:15.904Z,5.80
2023-02-09T16:06:50.544Z,5.80
2023-02-09T16:09:21.675Z,5.70
2023-02-09T16:11:49.639Z,5.60
2023-02-09T16:14:21.378Z,5.60
2023-02-09T16:16:49.937Z,5.70
2023-02-09T16:19:18.748Z,5.50
2023-02-09T16:21:51.919Z,5.70
2023-02-09T16:24:41.258Z,5.70
2023-02-09T16:27:17.013Z,5.80
2023-02-09T16:29:44.741Z,5.70
2023-02-09T16:32:22.091Z,5.50
2023-02-09T16:34:50.675Z,5.50
2023-02-09T16:37:29.831Z,5.50
2023-02-09T16:40:01.115Z,5.50
2023-02-09T16:42:30.040Z,5.50
2023-02-09T16:44:57.991Z,5.40
2023-02-09T16:47:28.287Z,5.20
2023-02-09T16:50:02.947Z,5.20
2023-02-09T16:52:30.987Z,5.20
2023-02-09T16:55:01.153Z,5.10
2023-02-09T16:57:29.602Z,4.90
2023-02-09T16:59:57.366Z,4.80
2023-02-09T17:02:34.068Z,4.80
2023-02-09T17:05:07.952Z,4.90
2023-02-09T17:07:52.292Z,4.60
2023-02-09T17:10:24.354Z,4.60
2023-02-09T17:12:53.696Z,4.60
2023-02-09T17:15:30.724Z,4.50
2023-02-09T17:18:06.072Z,4.30
2023-02-09T17:20:45.613Z,4.20
2023-02-09T17:23:23.436Z,4.10
2023-02-09T17:25:55.165Z,4.00
2023-02-09T17:28:27.151Z,4.10
2023-02-09T17:31:00.943Z,4.10
2023-02-09T17:33:32.053Z,3.90
2023-02-09T17:38:48.353Z,3.90
2023-02-09T17:41:44.865Z,4.00
2023-02-09T17:44:24.238Z,4.20
2023-02-09T17:46:59.886Z,4.10
2023-02-09T17:49:27.742Z,4.10
2023-02-09T17:51:55.469Z,4.20
2023-02-09T17:54:23.290Z,4.00
2023-02-09T17:56:51.179Z,3.90
2023-02-09T17:59:20.438Z,3.90
2023-02-09T18:01:52.025Z,4.00
2023-02-09T18:04:28.781Z,4.00
2023-02-09T18:06:57.826Z,3.90
2023-02-09T18:09:25.674Z,3.80
2023-02-09T18:12:19.564Z,3.90
2023-02-09T18:14:47.353Z,3.80
2023-02-09T18:17:15.073Z,3.80
2023-02-09T18:19:42.829Z,3.70
2023-02-09T18:22:17.188Z,3.70
2023-02-09T18:24:45.091Z,3.80
2023-02-09T18:27:18.642Z,3.80
2023-02-09T18:29:46.568Z,3.70
2023-02-09T18:32:17.118Z,3.70
2023-02-09T18:34:44.819Z,3.70
2023-02-09T18:37:15.210Z,3.80
2023-02-09T18:39:46.706Z,3.80
2023-02-09T18:42:16.443Z,3.70
2023-02-09T18:44:44.484Z,3.60
2023-02-09T18:47:12.418Z,3.40
2023-02-09T18:49:40.122Z,3.50
2023-02-09T18:52:08.767Z,3.60
2023-02-09T18:54:36.499Z,3.60
2023-02-09T18:57:04.218Z,3.60
2023-02-09T18:59:32.490Z,3.50
2023-02-09T19:02:00.466Z,3.50
2023-02-09T19:04:28.491Z,3.40
2023-02-09T19:06:56.312Z,3.40
2023-02-09T19:09:24.175Z,3.40
2023-02-09T19:11:51.881Z,3.50
2023-02-09T19:14:37.634Z,3.40
2023-02-09T19:17:07.393Z,3.20
2023-02-09T19:19:35.340Z,3.10
2023-02-09T19:22:03.007Z,3.00
2023-02-09T19:24:30.861Z,3.00
2023-02-09T19:26:58.588Z,2.90
2023-02-09T19:29:26.330Z,2.80
2023-02-09T19:31:55.749Z,2.80
2023-02-09T19:34:23.675Z,3.00
2023-02-09T19:36:51.643Z,3.00
2023-02-09T19:39:20.154Z,2.70
2023-02-09T19:41:49.208Z,2.70
2023-02-09T19:44:17.031Z,2.70
2023-02-09T19:46:45.771Z,2.60
2023-02-09T19:49:13.532Z,2.60
2023-02-09T19:51:41.280Z,2.60
2023-02-09T19:54:09.009Z,2.70
2023-02-09T19:56:37.571Z,2.80
2023-02-09T19:59:05.314Z,2.90
2023-02-09T20:01:33.956Z,2.70
2023-02-09T20:04:01.691Z,2.70
2023-02-09T20:06:30.965Z,2.60
2023-02-09T20:08:59.503Z,2.60
2023-02-09T20:11:28.235Z,2.50
2023-02-09T20:13:55.995Z,2.50
2023-02-09T20:16:26.805Z,2.60
2023-02-09T20:18:54.938Z,2.50
2023-02-09T20:21:24.229Z,2.50
2023-02-09T20:23:56.798Z,2.40
2023-02-09T20:26:29.245Z,2.40
2023-02-09T20:28:57.781Z,2.50
2023-02-09T20:31:28.353Z,2.50
2023-02-09T20:33:56.285Z,2.40
2023-02-09T20:36:25.669Z,2.40
2023-02-09T20:38:53.673Z,2.30
2023-02-09T20:41:21.412Z,2.30
2023-02-09T20:44:07.558Z,2.30
2023-02-09T20:46:44.277Z,2.20
2023-02-09T20:49:14.686Z,2.10
2023-02-09T20:51:42.715Z,2.10
2023-02-09T20:54:10.778Z,2.10
2023-02-09T20:56:38.566Z,2.00
2023-02-09T20:59:07.262Z,2.00
2023-02-09T21:01:40.338Z,1.80
2023-02-09T21:04:08.172Z,1.80
2023-02-09T21:06:37.675Z,1.70
2023-02-09T21:09:10.778Z,1.70
2023-02-09T21:11:38.489Z,1.80
2023-02-09T21:14:06.278Z,1.90
2023-02-09T21:16:34.237Z,2.00
2023-02-09T21:19:02.086Z,2.10
2023-02-09T21:21:29.793Z,2.10
2023-02-09T21:23:57.916Z,2.10
2023-02-09T21:26:25.800Z,2.30
2023-02-09T21:28:57.765Z,2.30
2023-02-09T21:31:27.566Z,2.30
2023-02-09T21:33:55.332Z,2.20
2023-02-09T21:36:23.145Z,2.10
2023-02-09T21:38:50.843Z,2.10
2023-02-09T21:41:40.496Z,2.00
2023-02-09T21:44:15.458Z,2.00
2023-02-09T21:46:43.209Z,1.90
2023-02-09T21:49:13.316Z,1.90
2023-02-09T21:51:42.532Z,1.90
2023-02-09T21:54:18.040Z,1.80
2023-02-09T21:56:45.852Z,1.80
2023-02-09T21:59:13.551Z,1.70
2023-02-09T22:01:43.097Z,1.60
2023-02-09T22:04:10.817Z,1.50
2023-02-09T22:06:38.533Z,1.60
2023-02-09T22:09:07.035Z,1.60
2023-02-09T22:11:35.023Z,1.60
2023-02-09T22:14:02.806Z,1.50
2023-02-09T22:16:30.780Z,1.50
2023-02-09T22:19:00.149Z,1.40
2023-02-09T22:21:27.936Z,1.40
2023-02-09T22:23:55.972Z,1.50
2023-02-09T22:26:23.656Z,1.50
2023-02-09T22:28:51.346Z,1.40
2023-02-09T22:31:20.430Z,1.40
2023-02-09T22:33:48.851Z,1.40
2023-02-09T22:36:24.153Z,1.40
2023-02-09T22:38:51.960Z,1.30
2023-02-09T22:41:22.575Z,1.40
2023-02-09T22:43:52.522Z,1.40
2023-02-09T22:46:21.605Z,1.20
2023-02-09T22:48:59.064Z,1.30
2023-02-09T22:51:30.011Z,1.40
2023-02-09T22:53:59.336Z,1.30
2023-02-09T22:56:29.330Z,1.10
2023-02-09T22:58:59.027Z,0.80
2023-02-09T23:01:28.057Z,1.00
2023-02-09T23:03:56.192Z,1.00
2023-02-09T23:06:27.374Z,1.20
2023-02-09T23:08:57.256Z,1.20
2023-02-09T23:11:25.841Z,1.20
2023-02-09T23:14:08.458Z,1.10
2023-02-09T23:16:37.638Z,1.00
2023-02-09T23:19:07.437Z,0.90
2023-02-09T23:21:39.069Z,0.90
2023-02-09T23:24:08.086Z,0.90
2023-02-09T23:26:36.629Z,0.80
2023-02-09T23:29:08.372Z,0.80
2023-02-09T23:31:36.725Z,0.90
2023-02-09T23:34:05.284Z,0.80
2023-02-09T23:36:34.387Z,0.70
2023-02-09T23:39:05.292Z,0.40
2023-02-09T23:41:33.741Z,0.50
2023-02-09T23:44:03.660Z,0.60
2023-02-09T23:46:31.733Z,0.50
2023-02-09T23:48:59.559Z,0.40
2023-02-09T23:51:33.184Z,0.10
2023-02-09T23:54:03.516Z,0.10
2023-02-09T23:56:36.964Z,0.30
2023-02-09T23:59:11.790Z,0.50
